Jackson Summit, Pennsylvania
Current Conditions -  °F | °C
As of 5:53 PM on Friday 28 Nov 2014 (Local Time) from KELM Reporting Station
Clear Clear  
Wind Chill: 22°   Ceiling: Unl
Heat Index: 22°   Visibility: 10mi
Dew Point: 13°   Wind: 3mph
Humidity: 68%   Direction: 230°SW
Pressure: 30.21"   Gusts: NA
Location:  41.9565°N, 76.9857°W
Report Text: KELM 282253Z AUTO 23003KT 10SM CLR M06/M11 A3021 RMK AO2 SLP243 T10561106
Loading
Personal Weather Stations






























Interactive Weather Map New forecast layout! Learn more

10-Day Weather Forecast

Advertisements
Track Severe Weather on mobile